sensor_id;sensor_type;location;lat;lon;timestamp;P1;durP1;ratioP1;P2;durP2;ratioP2
13603;SDS011;24578;48.264;11.436;2024-03-07T00:00:13;17.77;;;8.85;;
13603;SDS011;24578;48.264;11.436;2024-03-07T00:12:25;17.42;;;8.57;;
13603;SDS011;24578;48.264;11.436;2024-03-07T00:18:29;19.92;;;9.60;;
13603;SDS011;24578;48.264;11.436;2024-03-07T00:24:32;18.58;;;8.48;;
13603;SDS011;24578;48.264;11.436;2024-03-07T00:30:33;17.60;;;8.63;;
13603;SDS011;24578;48.264;11.436;2024-03-07T00:36:36;21.27;;;10.13;;
13603;SDS011;24578;48.264;11.436;2024-03-07T00:42:37;19.27;;;9.15;;
13603;SDS011;24578;48.264;11.436;2024-03-07T00:48:39;21.08;;;9.65;;
13603;SDS011;24578;48.264;11.436;2024-03-07T00:54:44;19.30;;;9.65;;
13603;SDS011;24578;48.264;11.436;2024-03-07T01:00:46;20.25;;;9.13;;
13603;SDS011;24578;48.264;11.436;2024-03-07T01:06:49;22.60;;;10.75;;
13603;SDS011;24578;48.264;11.436;2024-03-07T01:12:51;21.15;;;10.00;;
13603;SDS011;24578;48.264;11.436;2024-03-07T01:18:55;23.17;;;10.82;;
13603;SDS011;24578;48.264;11.436;2024-03-07T01:24:56;26.42;;;12.57;;
13603;SDS011;24578;48.264;11.436;2024-03-07T01:30:58;26.50;;;12.63;;
13603;SDS011;24578;48.264;11.436;2024-03-07T01:37:00;27.48;;;12.55;;
13603;SDS011;24578;48.264;11.436;2024-03-07T01:43:06;28.20;;;11.90;;
13603;SDS011;24578;48.264;11.436;2024-03-07T01:49:09;27.70;;;11.68;;
13603;SDS011;24578;48.264;11.436;2024-03-07T01:55:11;27.42;;;11.73;;
13603;SDS011;24578;48.264;11.436;2024-03-07T02:01:15;31.23;;;13.60;;
13603;SDS011;24578;48.264;11.436;2024-03-07T02:07:17;26.90;;;11.73;;
13603;SDS011;24578;48.264;11.436;2024-03-07T02:13:19;27.65;;;12.30;;
13603;SDS011;24578;48.264;11.436;2024-03-07T02:19:21;34.35;;;13.15;;
13603;SDS011;24578;48.264;11.436;2024-03-07T02:25:23;29.00;;;12.52;;
13603;SDS011;24578;48.264;11.436;2024-03-07T02:31:24;28.20;;;12.32;;
13603;SDS011;24578;48.264;11.436;2024-03-07T02:37:36;29.85;;;12.63;;
13603;SDS011;24578;48.264;11.436;2024-03-07T02:43:38;31.02;;;12.57;;
13603;SDS011;24578;48.264;11.436;2024-03-07T02:49:39;28.52;;;12.35;;
13603;SDS011;24578;48.264;11.436;2024-03-07T02:55:42;33.05;;;13.35;;
13603;SDS011;24578;48.264;11.436;2024-03-07T03:01:43;27.80;;;12.48;;
13603;SDS011;24578;48.264;11.436;2024-03-07T03:07:45;33.70;;;13.35;;
13603;SDS011;24578;48.264;11.436;2024-03-07T03:13:54;31.55;;;13.48;;
13603;SDS011;24578;48.264;11.436;2024-03-07T03:19:57;31.92;;;12.80;;
13603;SDS011;24578;48.264;11.436;2024-03-07T03:25:58;33.13;;;14.57;;
13603;SDS011;24578;48.264;11.436;2024-03-07T03:32:01;36.78;;;15.63;;
13603;SDS011;24578;48.264;11.436;2024-03-07T03:38:03;41.88;;;16.67;;
13603;SDS011;24578;48.264;11.436;2024-03-07T03:44:05;37.17;;;16.42;;
13603;SDS011;24578;48.264;11.436;2024-03-07T03:50:11;44.50;;;17.60;;
13603;SDS011;24578;48.264;11.436;2024-03-07T03:56:16;65.55;;;27.80;;
13603;SDS011;24578;48.264;11.436;2024-03-07T04:02:32;53.72;;;21.63;;
13603;SDS011;24578;48.264;11.436;2024-03-07T04:08:33;44.67;;;19.02;;
13603;SDS011;24578;48.264;11.436;2024-03-07T04:20:43;50.90;;;20.10;;
13603;SDS011;24578;48.264;11.436;2024-03-07T04:26:46;53.63;;;19.63;;
13603;SDS011;24578;48.264;11.436;2024-03-07T04:32:49;48.53;;;20.95;;
13603;SDS011;24578;48.264;11.436;2024-03-07T04:38:52;55.22;;;22.63;;
13603;SDS011;24578;48.264;11.436;2024-03-07T04:44:54;77.47;;;30.13;;
13603;SDS011;24578;48.264;11.436;2024-03-07T04:50:55;54.22;;;21.23;;
13603;SDS011;24578;48.264;11.436;2024-03-07T04:56:58;53.90;;;20.65;;
13603;SDS011;24578;48.264;11.436;2024-03-07T05:03:00;48.00;;;20.42;;
13603;SDS011;24578;48.264;11.436;2024-03-07T05:09:05;50.33;;;20.05;;
13603;SDS011;24578;48.264;11.436;2024-03-07T05:15:11;47.78;;;19.80;;
13603;SDS011;24578;48.264;11.436;2024-03-07T05:21:13;48.65;;;19.73;;
13603;SDS011;24578;48.264;11.436;2024-03-07T05:27:33;44.78;;;20.08;;
13603;SDS011;24578;48.264;11.436;2024-03-07T05:33:38;45.38;;;19.60;;
13603;SDS011;24578;48.264;11.436;2024-03-07T05:45:43;46.60;;;19.75;;
13603;SDS011;24578;48.264;11.436;2024-03-07T05:57:51;50.65;;;21.08;;
13603;SDS011;24578;48.264;11.436;2024-03-07T06:03:56;51.75;;;20.77;;
13603;SDS011;24578;48.264;11.436;2024-03-07T06:09:58;49.25;;;21.05;;
13603;SDS011;24578;48.264;11.436;2024-03-07T06:16:00;47.90;;;20.15;;
13603;SDS011;24578;48.264;11.436;2024-03-07T06:22:07;52.08;;;21.90;;
13603;SDS011;24578;48.264;11.436;2024-03-07T06:28:10;48.13;;;20.50;;
13603;SDS011;24578;48.264;11.436;2024-03-07T06:34:12;49.13;;;20.42;;
13603;SDS011;24578;48.264;11.436;2024-03-07T06:40:15;48.78;;;19.90;;
13603;SDS011;24578;48.264;11.436;2024-03-07T06:46:22;47.60;;;20.23;;
13603;SDS011;24578;48.264;11.436;2024-03-07T06:52:25;52.83;;;19.98;;
13603;SDS011;24578;48.264;11.436;2024-03-07T06:58:28;51.78;;;21.13;;
13603;SDS011;24578;48.264;11.436;2024-03-07T07:04:34;49.38;;;21.02;;
13603;SDS011;24578;48.264;11.436;2024-03-07T07:10:49;49.55;;;20.38;;
13603;SDS011;24578;48.264;11.436;2024-03-07T07:17:09;44.03;;;19.58;;
13603;SDS011;24578;48.264;11.436;2024-03-07T07:23:21;47.60;;;18.75;;
13603;SDS011;24578;48.264;11.436;2024-03-07T07:29:24;49.85;;;20.08;;
13603;SDS011;24578;48.264;11.436;2024-03-07T07:35:26;43.45;;;19.73;;
13603;SDS011;24578;48.264;11.436;2024-03-07T07:41:28;49.20;;;20.48;;
13603;SDS011;24578;48.264;11.436;2024-03-07T07:47:30;47.72;;;20.98;;
13603;SDS011;24578;48.264;11.436;2024-03-07T07:53:34;46.65;;;20.45;;
13603;SDS011;24578;48.264;11.436;2024-03-07T07:59:36;49.83;;;21.67;;
13603;SDS011;24578;48.264;11.436;2024-03-07T08:05:38;46.40;;;20.30;;
13603;SDS011;24578;48.264;11.436;2024-03-07T08:11:40;43.53;;;18.48;;
13603;SDS011;24578;48.264;11.436;2024-03-07T08:17:43;41.33;;;17.48;;
13603;SDS011;24578;48.264;11.436;2024-03-07T08:23:45;46.40;;;20.27;;
13603;SDS011;24578;48.264;11.436;2024-03-07T08:29:47;43.33;;;20.27;;
13603;SDS011;24578;48.264;11.436;2024-03-07T08:35:50;40.03;;;19.08;;
13603;SDS011;24578;48.264;11.436;2024-03-07T08:41:54;56.50;;;25.67;;
13603;SDS011;24578;48.264;11.436;2024-03-07T08:47:57;34.20;;;17.30;;
13603;SDS011;24578;48.264;11.436;2024-03-07T08:54:00;40.25;;;17.30;;
13603;SDS011;24578;48.264;11.436;2024-03-07T09:00:05;31.63;;;16.10;;
13603;SDS011;24578;48.264;11.436;2024-03-07T09:06:13;35.67;;;17.08;;
13603;SDS011;24578;48.264;11.436;2024-03-07T09:12:17;34.83;;;17.35;;
13603;SDS011;24578;48.264;11.436;2024-03-07T09:18:22;36.58;;;17.10;;
13603;SDS011;24578;48.264;11.436;2024-03-07T09:24:25;31.38;;;15.80;;
13603;SDS011;24578;48.264;11.436;2024-03-07T09:30:27;35.45;;;16.80;;
13603;SDS011;24578;48.264;11.436;2024-03-07T09:36:32;32.63;;;16.77;;
13603;SDS011;24578;48.264;11.436;2024-03-07T09:42:46;34.67;;;16.55;;
13603;SDS011;24578;48.264;11.436;2024-03-07T09:48:52;36.75;;;16.83;;
13603;SDS011;24578;48.264;11.436;2024-03-07T09:54:56;32.00;;;15.20;;
13603;SDS011;24578;48.264;11.436;2024-03-07T10:01:00;35.08;;;17.08;;
13603;SDS011;24578;48.264;11.436;2024-03-07T10:07:04;31.33;;;15.90;;
13603;SDS011;24578;48.264;11.436;2024-03-07T10:13:06;32.15;;;15.63;;
13603;SDS011;24578;48.264;11.436;2024-03-07T10:19:10;34.67;;;17.17;;
13603;SDS011;24578;48.264;11.436;2024-03-07T10:25:13;31.65;;;15.73;;
13603;SDS011;24578;48.264;11.436;2024-03-07T10:31:28;32.20;;;15.15;;
13603;SDS011;24578;48.264;11.436;2024-03-07T10:37:33;28.65;;;14.98;;
13603;SDS011;24578;48.264;11.436;2024-03-07T10:43:36;34.00;;;16.58;;
13603;SDS011;24578;48.264;11.436;2024-03-07T10:49:44;31.63;;;16.42;;
13603;SDS011;24578;48.264;11.436;2024-03-07T11:08:58;27.08;;;14.15;;
13603;SDS011;24578;48.264;11.436;2024-03-07T11:15:05;28.48;;;14.48;;
13603;SDS011;24578;48.264;11.436;2024-03-07T11:21:36;26.45;;;13.65;;
13603;SDS011;24578;48.264;11.436;2024-03-07T11:28:06;29.30;;;13.63;;
13603;SDS011;24578;48.264;11.436;2024-03-07T11:34:14;36.63;;;18.67;;
13603;SDS011;24578;48.264;11.436;2024-03-07T11:46:26;26.15;;;13.40;;
13603;SDS011;24578;48.264;11.436;2024-03-07T11:52:30;28.33;;;14.25;;
13603;SDS011;24578;48.264;11.436;2024-03-07T11:58:37;24.60;;;12.70;;
13603;SDS011;24578;48.264;11.436;2024-03-07T12:04:42;23.45;;;11.68;;
13603;SDS011;24578;48.264;11.436;2024-03-07T12:10:44;25.60;;;13.18;;
13603;SDS011;24578;48.264;11.436;2024-03-07T12:16:50;28.20;;;13.98;;
13603;SDS011;24578;48.264;11.436;2024-03-07T12:22:57;26.25;;;12.80;;
13603;SDS011;24578;48.264;11.436;2024-03-07T12:29:09;25.65;;;13.15;;
13603;SDS011;24578;48.264;11.436;2024-03-07T12:35:13;26.60;;;12.60;;
13603;SDS011;24578;48.264;11.436;2024-03-07T12:41:15;29.48;;;13.13;;
13603;SDS011;24578;48.264;11.436;2024-03-07T12:47:18;29.15;;;13.50;;
13603;SDS011;24578;48.264;11.436;2024-03-07T12:53:20;26.50;;;12.93;;
13603;SDS011;24578;48.264;11.436;2024-03-07T12:59:23;27.13;;;13.45;;
13603;SDS011;24578;48.264;11.436;2024-03-07T13:05:25;20.45;;;10.48;;
13603;SDS011;24578;48.264;11.436;2024-03-07T13:11:27;26.90;;;12.80;;
13603;SDS011;24578;48.264;11.436;2024-03-07T13:17:32;27.75;;;13.45;;
13603;SDS011;24578;48.264;11.436;2024-03-07T13:23:35;24.75;;;11.50;;
13603;SDS011;24578;48.264;11.436;2024-03-07T13:29:38;25.00;;;12.35;;
13603;SDS011;24578;48.264;11.436;2024-03-07T13:35:40;23.75;;;12.18;;
13603;SDS011;24578;48.264;11.436;2024-03-07T13:41:43;27.52;;;12.20;;
13603;SDS011;24578;48.264;11.436;2024-03-07T13:47:49;26.75;;;12.32;;
13603;SDS011;24578;48.264;11.436;2024-03-07T13:53:58;22.15;;;10.65;;
13603;SDS011;24578;48.264;11.436;2024-03-07T14:20:43;30.52;;;15.30;;
13603;SDS011;24578;48.264;11.436;2024-03-07T14:33:23;26.52;;;13.23;;
13603;SDS011;24578;48.264;11.436;2024-03-07T14:39:29;32.35;;;14.50;;
13603;SDS011;24578;48.264;11.436;2024-03-07T14:45:36;29.42;;;14.43;;
13603;SDS011;24578;48.264;11.436;2024-03-07T14:51:41;30.17;;;13.55;;
13603;SDS011;24578;48.264;11.436;2024-03-07T14:57:59;30.50;;;13.05;;
13603;SDS011;24578;48.264;11.436;2024-03-07T15:04:01;29.65;;;13.32;;
13603;SDS011;24578;48.264;11.436;2024-03-07T15:10:05;28.88;;;13.45;;
13603;SDS011;24578;48.264;11.436;2024-03-07T15:16:13;32.10;;;13.82;;
13603;SDS011;24578;48.264;11.436;2024-03-07T15:22:33;27.02;;;12.73;;
13603;SDS011;24578;48.264;11.436;2024-03-07T15:28:35;25.98;;;12.27;;
13603;SDS011;24578;48.264;11.436;2024-03-07T15:34:37;25.08;;;11.50;;
13603;SDS011;24578;48.264;11.436;2024-03-07T15:40:39;21.90;;;9.77;;
13603;SDS011;24578;48.264;11.436;2024-03-07T15:46:41;35.63;;;18.30;;
13603;SDS011;24578;48.264;11.436;2024-03-07T15:52:43;18.70;;;8.70;;
13603;SDS011;24578;48.264;11.436;2024-03-07T15:58:44;15.77;;;7.65;;
13603;SDS011;24578;48.264;11.436;2024-03-07T16:04:50;14.68;;;6.78;;
13603;SDS011;24578;48.264;11.436;2024-03-07T16:10:52;15.85;;;6.75;;
13603;SDS011;24578;48.264;11.436;2024-03-07T16:16:54;16.67;;;7.03;;
13603;SDS011;24578;48.264;11.436;2024-03-07T16:22:56;15.45;;;6.82;;
13603;SDS011;24578;48.264;11.436;2024-03-07T16:28:58;14.05;;;6.45;;
13603;SDS011;24578;48.264;11.436;2024-03-07T16:35:00;13.65;;;6.20;;
13603;SDS011;24578;48.264;11.436;2024-03-07T16:41:03;14.57;;;7.00;;
13603;SDS011;24578;48.264;11.436;2024-03-07T16:47:05;15.65;;;7.00;;
13603;SDS011;24578;48.264;11.436;2024-03-07T16:53:11;14.52;;;6.88;;
13603;SDS011;24578;48.264;11.436;2024-03-07T16:59:13;14.65;;;7.07;;
13603;SDS011;24578;48.264;11.436;2024-03-07T17:05:14;15.10;;;7.15;;
13603;SDS011;24578;48.264;11.436;2024-03-07T17:11:16;15.55;;;7.47;;
13603;SDS011;24578;48.264;11.436;2024-03-07T17:17:18;18.45;;;7.88;;
13603;SDS011;24578;48.264;11.436;2024-03-07T17:23:20;16.40;;;7.57;;
13603;SDS011;24578;48.264;11.436;2024-03-07T17:29:24;15.10;;;7.60;;
13603;SDS011;24578;48.264;11.436;2024-03-07T17:35:28;17.60;;;7.82;;
13603;SDS011;24578;48.264;11.436;2024-03-07T17:41:31;18.95;;;8.18;;
13603;SDS011;24578;48.264;11.436;2024-03-07T17:47:33;22.00;;;10.70;;
13603;SDS011;24578;48.264;11.436;2024-03-07T17:53:35;16.05;;;7.95;;
13603;SDS011;24578;48.264;11.436;2024-03-07T17:59:38;20.00;;;9.07;;
13603;SDS011;24578;48.264;11.436;2024-03-07T18:05:42;15.73;;;7.80;;
13603;SDS011;24578;48.264;11.436;2024-03-07T18:11:52;18.55;;;9.02;;
13603;SDS011;24578;48.264;11.436;2024-03-07T18:17:57;20.77;;;8.75;;
13603;SDS011;24578;48.264;11.436;2024-03-07T18:23:59;19.50;;;9.30;;
13603;SDS011;24578;48.264;11.436;2024-03-07T18:30:01;20.15;;;9.05;;
13603;SDS011;24578;48.264;11.436;2024-03-07T18:42:14;21.70;;;10.35;;
13603;SDS011;24578;48.264;11.436;2024-03-07T18:48:16;22.83;;;10.48;;
13603;SDS011;24578;48.264;11.436;2024-03-07T18:54:18;22.83;;;10.98;;
13603;SDS011;24578;48.264;11.436;2024-03-07T19:00:25;23.48;;;11.25;;
13603;SDS011;24578;48.264;11.436;2024-03-07T19:06:35;44.38;;;20.35;;
13603;SDS011;24578;48.264;11.436;2024-03-07T19:12:44;22.73;;;10.10;;
13603;SDS011;24578;48.264;11.436;2024-03-07T19:18:45;23.27;;;11.45;;
13603;SDS011;24578;48.264;11.436;2024-03-07T19:24:47;22.48;;;9.48;;
13603;SDS011;24578;48.264;11.436;2024-03-07T19:30:51;26.52;;;11.40;;
13603;SDS011;24578;48.264;11.436;2024-03-07T19:36:53;27.95;;;11.77;;
13603;SDS011;24578;48.264;11.436;2024-03-07T19:42:55;26.25;;;12.10;;
13603;SDS011;24578;48.264;11.436;2024-03-07T19:48:57;22.55;;;10.85;;
13603;SDS011;24578;48.264;11.436;2024-03-07T19:54:59;25.38;;;11.73;;
13603;SDS011;24578;48.264;11.436;2024-03-07T20:01:04;28.23;;;12.45;;
13603;SDS011;24578;48.264;11.436;2024-03-07T20:07:06;31.25;;;13.30;;
13603;SDS011;24578;48.264;11.436;2024-03-07T20:13:12;24.65;;;11.80;;
13603;SDS011;24578;48.264;11.436;2024-03-07T20:19:15;35.05;;;15.38;;
13603;SDS011;24578;48.264;11.436;2024-03-07T20:25:17;27.77;;;12.75;;
13603;SDS011;24578;48.264;11.436;2024-03-07T20:31:20;25.85;;;12.45;;
13603;SDS011;24578;48.264;11.436;2024-03-07T20:37:22;28.02;;;12.57;;
13603;SDS011;24578;48.264;11.436;2024-03-07T20:43:24;30.73;;;12.57;;
13603;SDS011;24578;48.264;11.436;2024-03-07T20:49:26;28.25;;;12.23;;
13603;SDS011;24578;48.264;11.436;2024-03-07T20:55:28;26.33;;;11.48;;
13603;SDS011;24578;48.264;11.436;2024-03-07T21:01:30;27.00;;;12.20;;
13603;SDS011;24578;48.264;11.436;2024-03-07T21:07:32;27.02;;;11.85;;
13603;SDS011;24578;48.264;11.436;2024-03-07T21:13:38;25.48;;;11.02;;
13603;SDS011;24578;48.264;11.436;2024-03-07T21:19:40;25.00;;;11.82;;
13603;SDS011;24578;48.264;11.436;2024-03-07T21:25:42;32.05;;;12.30;;
13603;SDS011;24578;48.264;11.436;2024-03-07T21:31:44;25.80;;;11.15;;
13603;SDS011;24578;48.264;11.436;2024-03-07T21:37:47;24.95;;;11.63;;
13603;SDS011;24578;48.264;11.436;2024-03-07T21:43:50;26.73;;;12.13;;
13603;SDS011;24578;48.264;11.436;2024-03-07T21:49:52;27.80;;;10.82;;
13603;SDS011;24578;48.264;11.436;2024-03-07T21:55:55;29.92;;;12.43;;
13603;SDS011;24578;48.264;11.436;2024-03-07T22:01:58;28.17;;;11.82;;
13603;SDS011;24578;48.264;11.436;2024-03-07T22:08:00;29.17;;;12.48;;
13603;SDS011;24578;48.264;11.436;2024-03-07T22:14:02;26.42;;;11.00;;
13603;SDS011;24578;48.264;11.436;2024-03-07T22:20:04;23.42;;;10.32;;
13603;SDS011;24578;48.264;11.436;2024-03-07T22:26:10;24.38;;;10.55;;
13603;SDS011;24578;48.264;11.436;2024-03-07T22:32:13;26.48;;;10.63;;
13603;SDS011;24578;48.264;11.436;2024-03-07T22:38:15;24.23;;;10.43;;
13603;SDS011;24578;48.264;11.436;2024-03-07T22:44:17;22.45;;;10.15;;
13603;SDS011;24578;48.264;11.436;2024-03-07T22:50:18;27.00;;;10.32;;
13603;SDS011;24578;48.264;11.436;2024-03-07T22:56:31;21.85;;;9.93;;
13603;SDS011;24578;48.264;11.436;2024-03-07T23:02:32;19.83;;;10.05;;
13603;SDS011;24578;48.264;11.436;2024-03-07T23:08:36;26.20;;;10.40;;
13603;SDS011;24578;48.264;11.436;2024-03-07T23:14:38;25.17;;;11.18;;
13603;SDS011;24578;48.264;11.436;2024-03-07T23:20:40;23.92;;;10.23;;
13603;SDS011;24578;48.264;11.436;2024-03-07T23:26:43;23.75;;;9.80;;
13603;SDS011;24578;48.264;11.436;2024-03-07T23:32:50;24.88;;;10.98;;
13603;SDS011;24578;48.264;11.436;2024-03-07T23:38:53;23.23;;;9.57;;
13603;SDS011;24578;48.264;11.436;2024-03-07T23:44:55;24.38;;;9.77;;
13603;SDS011;24578;48.264;11.436;2024-03-07T23:50:59;24.30;;;10.25;;
13603;SDS011;24578;48.264;11.436;2024-03-07T23:57:02;27.52;;;10.75;;
